createdAt,value
2022-07-27T00:01:35.002Z,99.90
2022-07-27T00:04:02.811Z,99.90
2022-07-27T00:06:30.663Z,99.90
2022-07-27T00:08:58.464Z,99.90
2022-07-27T00:11:27.617Z,99.90
2022-07-27T00:13:55.389Z,99.90
2022-07-27T00:16:33.684Z,99.90
2022-07-27T00:19:01.506Z,99.90
2022-07-27T00:21:29.326Z,99.90
2022-07-27T00:23:57.278Z,99.90
2022-07-27T00:26:40.568Z,99.90
2022-07-27T00:29:09.440Z,99.90
2022-07-27T00:31:37.754Z,99.90
2022-07-27T00:34:06.270Z,99.90
2022-07-27T00:36:34.080Z,99.90
2022-07-27T00:39:01.845Z,99.90
2022-07-27T00:41:29.650Z,99.90
2022-07-27T00:44:00.393Z,99.90
2022-07-27T00:46:34.185Z,99.90
2022-07-27T00:49:02.183Z,99.90
2022-07-27T00:51:34.159Z,99.90
2022-07-27T00:54:02.051Z,99.90
2022-07-27T00:56:29.947Z,99.90
2022-07-27T00:58:59.107Z,99.90
2022-07-27T01:01:27.005Z,99.90
2022-07-27T01:03:54.802Z,99.90
2022-07-27T01:06:26.785Z,99.90
2022-07-27T01:09:15.845Z,99.90
2022-07-27T01:11:43.976Z,99.90
2022-07-27T01:14:14.091Z,99.90
2022-07-27T01:16:42.079Z,99.90
2022-07-27T01:19:11.982Z,99.90
2022-07-27T01:21:41.368Z,99.90
2022-07-27T01:24:09.662Z,99.90
2022-07-27T01:26:38.599Z,99.90
2022-07-27T01:29:06.443Z,99.90
2022-07-27T01:31:34.454Z,99.90
2022-07-27T01:34:02.491Z,99.90
2022-07-27T01:36:31.124Z,99.90
2022-07-27T01:39:00.302Z,99.90
2022-07-27T01:41:28.113Z,99.90
2022-07-27T01:43:55.932Z,99.90
2022-07-27T01:46:24.188Z,99.90
2022-07-27T01:48:52.083Z,99.90
2022-07-27T01:51:19.922Z,99.90
2022-07-27T01:53:47.668Z,99.90
2022-07-27T01:56:16.858Z,99.90
2022-07-27T01:58:44.872Z,99.90
2022-07-27T02:01:12.783Z,99.90
2022-07-27T02:03:40.675Z,99.90
2022-07-27T02:06:09.838Z,99.90
2022-07-27T02:08:37.673Z,99.90
2022-07-27T02:11:22.936Z,99.90
2022-07-27T02:13:54.036Z,99.90
2022-07-27T02:16:21.934Z,99.90
2022-07-27T02:18:52.331Z,99.90
2022-07-27T02:21:21.157Z,99.90
2022-07-27T02:23:48.966Z,99.90
2022-07-27T02:26:16.764Z,99.90
2022-07-27T02:28:44.507Z,99.90
2022-07-27T02:31:13.617Z,99.90
2022-07-27T02:33:41.366Z,99.90
2022-07-27T02:36:09.581Z,99.90
2022-07-27T02:38:37.900Z,99.90
2022-07-27T02:41:05.713Z,99.90
2022-07-27T02:43:33.481Z,99.90
2022-07-27T02:46:01.326Z,99.90
2022-07-27T02:48:32.315Z,99.90
2022-07-27T02:51:01.741Z,99.90
2022-07-27T02:53:29.725Z,99.90
2022-07-27T02:55:57.691Z,99.90
2022-07-27T02:58:25.733Z,99.90
2022-07-27T03:00:58.224Z,99.90
2022-07-27T03:03:33.271Z,99.90
2022-07-27T03:06:19.615Z,99.90
2022-07-27T03:08:47.381Z,99.90
2022-07-27T03:11:16.262Z,99.90
2022-07-27T03:13:45.992Z,99.90
2022-07-27T03:16:13.856Z,99.90
2022-07-27T03:18:41.715Z,99.90
2022-07-27T03:21:09.786Z,99.90
2022-07-27T03:23:40.425Z,99.90
2022-07-27T03:26:08.646Z,99.90
2022-07-27T03:28:36.388Z,99.90
2022-07-27T03:31:04.580Z,99.90
2022-07-27T03:33:37.310Z,99.90
2022-07-27T03:36:05.933Z,99.90
2022-07-27T03:38:33.721Z,99.90
2022-07-27T03:41:10.861Z,99.90
2022-07-27T03:43:38.634Z,99.90
2022-07-27T03:46:06.479Z,99.90
2022-07-27T03:48:34.297Z,99.90
2022-07-27T03:51:02.139Z,99.90
2022-07-27T03:53:29.928Z,99.90
2022-07-27T03:55:57.716Z,99.90
2022-07-27T03:58:26.801Z,99.90
2022-07-27T04:00:56.661Z,99.90
2022-07-27T04:03:24.468Z,99.90
2022-07-27T04:05:52.251Z,99.90
2022-07-27T04:08:21.224Z,99.90
2022-07-27T04:10:49.320Z,99.90
2022-07-27T04:13:18.193Z,99.90
2022-07-27T04:15:47.281Z,99.90
2022-07-27T04:18:15.067Z,99.90
2022-07-27T04:20:43.853Z,99.90
2022-07-27T04:23:11.613Z,99.90
2022-07-27T04:25:39.391Z,99.90
2022-07-27T04:28:07.148Z,99.90
2022-07-27T04:30:35.166Z,99.90
2022-07-27T04:33:05.138Z,99.90
2022-07-27T04:35:32.962Z,99.90
2022-07-27T04:38:00.717Z,99.90
2022-07-27T04:40:32.907Z,99.90
2022-07-27T04:43:01.418Z,99.90
2022-07-27T04:45:29.904Z,99.90
2022-07-27T04:47:57.682Z,99.90
2022-07-27T04:50:26.808Z,99.90
2022-07-27T04:52:54.552Z,99.90
2022-07-27T04:55:22.574Z,99.90
2022-07-27T04:57:50.935Z,99.90
2022-07-27T05:00:19.270Z,99.90
2022-07-27T05:02:47.027Z,99.90
2022-07-27T05:05:14.770Z,99.90
2022-07-27T05:07:43.875Z,99.90
2022-07-27T05:10:15.302Z,99.90
2022-07-27T05:12:45.818Z,99.90
2022-07-27T05:15:13.595Z,99.90
2022-07-27T05:20:10.781Z,99.90
2022-07-27T05:22:40.014Z,99.90
2022-07-27T05:25:10.272Z,99.90
2022-07-27T05:27:54.026Z,99.90
2022-07-27T05:30:23.143Z,99.90
2022-07-27T05:32:50.907Z,99.90
2022-07-27T05:35:18.701Z,99.90
2022-07-27T05:37:46.981Z,99.90
2022-07-27T05:40:16.225Z,99.90
2022-07-27T05:42:44.729Z,99.90
2022-07-27T05:45:12.883Z,99.90
2022-07-27T05:47:41.068Z,99.90
2022-07-27T05:50:09.489Z,99.90
2022-07-27T05:52:38.138Z,99.90
2022-07-27T05:55:07.034Z,99.90
2022-07-27T05:57:38.074Z,99.90
2022-07-27T06:00:07.654Z,99.90
2022-07-27T06:02:35.448Z,99.90
2022-07-27T06:05:03.550Z,99.90
2022-07-27T06:07:49.818Z,99.90
2022-07-27T06:10:19.814Z,99.90
2022-07-27T06:12:49.235Z,99.90
2022-07-27T06:15:19.521Z,99.90
2022-07-27T06:17:49.249Z,99.90
2022-07-27T06:20:17.133Z,99.90
2022-07-27T06:22:47.033Z,99.90
2022-07-27T06:25:14.889Z,99.90
2022-07-27T06:27:42.888Z,99.90
2022-07-27T06:30:13.432Z,99.90
2022-07-27T06:32:41.243Z,99.90
2022-07-27T06:35:12.640Z,99.90
2022-07-27T06:37:43.932Z,99.90
2022-07-27T06:40:14.078Z,99.90
2022-07-27T06:42:42.182Z,99.90
2022-07-27T06:45:13.447Z,99.90
2022-07-27T06:47:49.054Z,99.90
2022-07-27T06:50:18.001Z,99.90
2022-07-27T06:52:45.776Z,99.90
2022-07-27T06:55:13.942Z,99.90
2022-07-27T06:57:42.769Z,99.90
2022-07-27T07:00:19.231Z,99.90
2022-07-27T07:02:55.218Z,99.90
2022-07-27T07:05:23.971Z,99.90
2022-07-27T07:07:52.091Z,99.90
2022-07-27T07:10:21.668Z,99.90
2022-07-27T07:13:06.383Z,99.90
2022-07-27T07:15:41.430Z,99.90
2022-07-27T07:18:18.152Z,99.90
2022-07-27T07:20:47.897Z,99.90
2022-07-27T07:23:15.715Z,99.90
2022-07-27T07:25:45.917Z,99.90
2022-07-27T07:28:13.686Z,99.90
2022-07-27T07:30:42.941Z,99.90
2022-07-27T07:33:10.710Z,99.90
2022-07-27T07:35:38.516Z,99.90
2022-07-27T07:38:26.305Z,99.90
2022-07-27T07:40:54.048Z,99.90
2022-07-27T07:43:21.978Z,99.90
2022-07-27T07:45:52.148Z,99.90
2022-07-27T07:48:21.697Z,99.90
2022-07-27T07:50:51.375Z,99.90
2022-07-27T07:53:19.516Z,99.90
2022-07-27T07:55:47.315Z,99.90
2022-07-27T07:58:15.114Z,99.90
2022-07-27T08:00:43.720Z,99.90
2022-07-27T08:03:12.946Z,99.90
2022-07-27T08:05:40.849Z,99.90
2022-07-27T08:08:08.624Z,99.90
2022-07-27T08:10:36.718Z,99.90
2022-07-27T08:13:05.093Z,99.90
2022-07-27T08:15:35.871Z,99.90
2022-07-27T08:18:04.490Z,99.90
2022-07-27T08:20:34.012Z,99.90
2022-07-27T08:23:08.807Z,99.90
2022-07-27T08:25:39.286Z,99.90
2022-07-27T08:28:07.602Z,99.90
2022-07-27T08:30:35.699Z,99.90
2022-07-27T08:33:06.152Z,99.90
2022-07-27T08:35:36.125Z,99.90
2022-07-27T08:38:06.725Z,99.90
2022-07-27T08:40:41.331Z,99.90
2022-07-27T08:43:12.161Z,99.90
2022-07-27T08:45:41.540Z,99.90
2022-07-27T08:48:13.594Z,99.90
2022-07-27T08:50:43.266Z,99.90
2022-07-27T08:53:13.706Z,99.90
2022-07-27T08:55:43.665Z,99.90
2022-07-27T08:58:13.224Z,99.90
2022-07-27T09:00:44.725Z,99.90
2022-07-27T09:03:18.561Z,99.90
2022-07-27T09:05:51.518Z,99.90
2022-07-27T09:08:24.113Z,99.90
2022-07-27T09:10:54.333Z,99.90
2022-07-27T09:13:25.051Z,99.90
2022-07-27T09:18:42.737Z,99.90
2022-07-27T09:21:17.099Z,99.90
2022-07-27T09:23:48.556Z,99.90
2022-07-27T09:26:32.497Z,99.90
2022-07-27T09:29:03.061Z,99.90
2022-07-27T09:31:31.538Z,99.90
2022-07-27T09:34:00.662Z,99.90
2022-07-27T09:36:30.772Z,99.90
2022-07-27T09:39:03.240Z,99.90
2022-07-27T09:41:42.971Z,99.90
2022-07-27T09:44:31.442Z,99.90
2022-07-27T09:47:00.996Z,99.90
2022-07-27T09:49:31.964Z,99.90
2022-07-27T09:52:02.931Z,99.90
2022-07-27T09:54:44.109Z,99.90
2022-07-27T09:57:12.064Z,99.90
2022-07-27T09:59:47.789Z,99.90
2022-07-27T10:02:16.223Z,99.90
2022-07-27T10:04:44.931Z,99.90
2022-07-27T10:07:14.574Z,99.90
2022-07-27T10:09:43.216Z,99.90
2022-07-27T10:12:11.293Z,99.90
2022-07-27T10:14:39.057Z,99.90
2022-07-27T10:17:10.611Z,99.90
2022-07-27T10:19:46.058Z,99.90
2022-07-27T10:22:15.986Z,99.40
2022-07-27T10:24:44.129Z,99.10
2022-07-27T10:27:22.937Z,98.70
2022-07-27T10:29:52.381Z,99.70
2022-07-27T10:32:31.020Z,98.20
2022-07-27T10:35:03.181Z,96.30
2022-07-27T10:37:34.905Z,96.90
2022-07-27T10:40:23.251Z,95.90
2022-07-27T10:42:54.589Z,96.10
2022-07-27T10:45:23.173Z,96.00
2022-07-27T10:47:53.081Z,95.30
2022-07-27T10:50:31.929Z,95.80
2022-07-27T10:53:14.621Z,93.00
2022-07-27T10:55:52.509Z,93.80
2022-07-27T10:58:53.027Z,92.80
2022-07-27T11:01:23.622Z,92.90
2022-07-27T11:03:56.136Z,93.20
2022-07-27T11:06:55.446Z,92.80
2022-07-27T11:12:05.727Z,92.80
2022-07-27T11:14:45.081Z,91.00
2022-07-27T11:20:04.433Z,86.50
2022-07-27T11:25:30.803Z,84.80
2022-07-27T11:27:58.543Z,83.10
2022-07-27T11:30:28.431Z,84.50
2022-07-27T11:32:57.119Z,80.70
2022-07-27T11:35:25.234Z,81.10
2022-07-27T11:38:03.711Z,82.10
2022-07-27T11:40:59.830Z,79.50
2022-07-27T11:43:45.189Z,78.70
2022-07-27T11:46:15.861Z,76.40
2022-07-27T11:49:08.722Z,78.90
2022-07-27T11:51:42.005Z,75.40
2022-07-27T11:54:14.280Z,76.50
2022-07-27T11:56:47.113Z,74.80
2022-07-27T11:59:18.057Z,72.70
2022-07-27T12:01:49.157Z,72.60
2022-07-27T12:04:25.716Z,70.80
2022-07-27T12:07:02.852Z,69.90
2022-07-27T12:09:38.372Z,69.70
2022-07-27T12:12:16.983Z,72.50
2022-07-27T12:14:48.710Z,70.10
2022-07-27T12:17:19.695Z,69.40
2022-07-27T12:19:59.851Z,66.60
2022-07-27T12:22:33.138Z,64.60
2022-07-27T12:25:05.661Z,65.40
2022-07-27T12:27:40.125Z,65.50
2022-07-27T12:30:13.003Z,65.20
2022-07-27T12:32:43.741Z,64.60
2022-07-27T12:35:37.869Z,65.80
2022-07-27T12:38:09.271Z,63.60
2022-07-27T12:40:45.364Z,63.70
2022-07-27T12:43:18.118Z,59.30
2022-07-27T12:45:47.318Z,61.10
2022-07-27T12:48:18.408Z,60.60
2022-07-27T12:51:03.021Z,64.70
2022-07-27T12:53:32.480Z,65.90
2022-07-27T12:56:02.438Z,61.40
2022-07-27T12:58:33.743Z,60.00
2022-07-27T13:01:11.590Z,59.20
2022-07-27T13:03:39.472Z,59.10
2022-07-27T13:06:13.054Z,60.00
2022-07-27T13:08:41.270Z,61.30
2022-07-27T13:11:11.021Z,61.10
2022-07-27T13:13:44.993Z,61.30
2022-07-27T13:16:12.825Z,61.50
2022-07-27T13:18:40.636Z,59.70
2022-07-27T13:21:14.190Z,62.00
2022-07-27T13:23:43.164Z,60.10
2022-07-27T13:26:10.959Z,60.00
2022-07-27T13:28:38.760Z,63.50
2022-07-27T13:31:08.372Z,62.20
2022-07-27T13:33:36.165Z,58.90
2022-07-27T13:36:10.242Z,58.40
2022-07-27T13:38:38.020Z,54.40
2022-07-27T13:41:05.797Z,53.60
2022-07-27T13:43:33.740Z,54.40
2022-07-27T13:46:03.221Z,55.00
2022-07-27T13:48:32.746Z,49.80
2022-07-27T13:51:01.605Z,51.60
2022-07-27T13:53:30.934Z,50.60
2022-07-27T13:55:58.742Z,50.10
2022-07-27T13:58:26.542Z,51.90
2022-07-27T14:00:54.343Z,49.50
2022-07-27T14:03:22.225Z,49.70
2022-07-27T14:05:51.945Z,49.10
2022-07-27T14:08:21.761Z,47.40
2022-07-27T14:11:03.223Z,49.40
2022-07-27T14:13:32.727Z,52.00
2022-07-27T14:16:01.590Z,50.40
2022-07-27T14:18:30.809Z,49.60
2022-07-27T14:21:02.164Z,48.80
2022-07-27T14:23:30.099Z,49.50
2022-07-27T14:25:59.922Z,50.70
2022-07-27T14:28:29.300Z,54.30
2022-07-27T14:30:59.415Z,50.20
2022-07-27T14:33:36.373Z,49.60
2022-07-27T14:36:07.074Z,49.80
2022-07-27T14:38:36.649Z,47.80
2022-07-27T14:41:04.721Z,48.90
2022-07-27T14:43:32.910Z,46.80
2022-07-27T14:46:01.003Z,47.50
2022-07-27T14:48:48.916Z,49.80
2022-07-27T14:51:18.191Z,47.00
2022-07-27T14:53:46.033Z,47.40
2022-07-27T14:56:14.148Z,45.90
2022-07-27T14:58:43.397Z,42.70
2022-07-27T15:01:11.213Z,44.20
2022-07-27T15:03:39.029Z,42.30
2022-07-27T15:06:07.186Z,42.40
2022-07-27T15:08:36.312Z,42.10
2022-07-27T15:11:04.230Z,42.10
2022-07-27T15:13:32.102Z,40.80
2022-07-27T15:15:59.949Z,37.90
2022-07-27T15:18:27.800Z,39.30
2022-07-27T15:20:55.669Z,39.60
2022-07-27T15:23:23.566Z,39.20
2022-07-27T15:25:53.705Z,39.40
2022-07-27T15:28:21.668Z,38.80
2022-07-27T15:30:50.418Z,38.30
2022-07-27T15:33:18.214Z,40.00
2022-07-27T15:35:45.971Z,37.60
2022-07-27T15:38:16.687Z,36.20
2022-07-27T15:40:44.491Z,37.60
2022-07-27T15:43:15.780Z,36.90
2022-07-27T15:45:48.207Z,36.90
2022-07-27T15:48:19.312Z,36.90
2022-07-27T15:50:51.074Z,38.80
2022-07-27T15:53:21.029Z,37.20
2022-07-27T15:55:49.708Z,38.30
2022-07-27T15:58:19.510Z,38.30
2022-07-27T16:00:48.944Z,36.50
2022-07-27T16:03:17.174Z,35.30
2022-07-27T16:05:47.486Z,33.10
2022-07-27T16:08:16.345Z,31.00
2022-07-27T16:10:45.075Z,30.40
2022-07-27T16:13:13.723Z,27.10
2022-07-27T16:16:01.731Z,22.80
2022-07-27T16:18:38.381Z,22.10
2022-07-27T16:21:08.045Z,19.70
2022-07-27T16:23:35.988Z,12.80
2022-07-27T16:26:05.775Z,13.50
2022-07-27T16:28:36.981Z,12.40
2022-07-27T16:31:07.261Z,8.90
2022-07-27T16:33:35.073Z,9.30
2022-07-27T16:36:03.006Z,4.80
2022-07-27T16:38:30.800Z,2.10
2022-07-27T16:40:59.190Z,1.40
2022-07-27T16:43:38.491Z,2.10
2022-07-27T16:46:09.941Z,1.40
2022-07-27T16:48:41.692Z,1.00
2022-07-27T16:51:11.379Z,1.70
2022-07-27T16:53:39.791Z,1.00
2022-07-27T16:56:08.797Z,1.00
2022-07-27T16:58:36.996Z,1.00
2022-07-27T17:01:05.045Z,1.00
2022-07-27T17:03:34.243Z,1.00
2022-07-27T17:06:06.156Z,1.00
2022-07-27T17:08:34.797Z,1.00
2022-07-27T17:11:02.847Z,1.00
2022-07-27T17:13:34.090Z,1.00
2022-07-27T17:16:03.916Z,1.00
2022-07-27T17:18:38.928Z,1.00
2022-07-27T17:21:12.093Z,1.00
2022-07-27T17:23:43.972Z,1.00
2022-07-27T17:26:13.909Z,1.00
2022-07-27T17:28:42.168Z,1.00
2022-07-27T17:31:11.304Z,1.00
2022-07-27T17:33:40.907Z,1.00
2022-07-27T17:36:18.498Z,1.00
2022-07-27T17:38:47.334Z,1.00
2022-07-27T17:41:21.770Z,1.00
2022-07-27T17:43:52.942Z,1.00
2022-07-27T17:46:26.682Z,1.00
2022-07-27T17:48:55.472Z,1.00
2022-07-27T17:51:25.164Z,1.00
2022-07-27T17:53:54.082Z,1.00
2022-07-27T17:56:22.131Z,1.00
2022-07-27T17:58:50.669Z,1.00
2022-07-27T18:01:31.832Z,1.00
2022-07-27T18:04:14.125Z,1.00
2022-07-27T18:06:43.352Z,1.00
2022-07-27T18:09:11.784Z,1.00
2022-07-27T18:11:40.857Z,1.00
2022-07-27T18:14:09.646Z,1.00
2022-07-27T18:16:40.883Z,1.00
2022-07-27T18:19:09.117Z,1.00
2022-07-27T18:21:37.988Z,1.00
2022-07-27T18:24:10.463Z,1.00
2022-07-27T18:26:38.547Z,1.00
2022-07-27T18:29:06.757Z,1.00
2022-07-27T18:31:34.895Z,1.00
2022-07-27T18:34:03.138Z,1.00
2022-07-27T18:36:34.023Z,1.00
2022-07-27T18:39:01.787Z,1.00
2022-07-27T18:41:30.914Z,1.00
2022-07-27T18:43:58.722Z,1.00
2022-07-27T18:46:26.675Z,1.00
2022-07-27T18:48:54.528Z,1.00
2022-07-27T18:51:22.377Z,1.00
2022-07-27T18:53:50.214Z,1.00
2022-07-27T18:56:18.933Z,1.00
2022-07-27T18:58:48.808Z,1.30
2022-07-27T19:01:16.806Z,1.70
2022-07-27T19:03:44.600Z,2.60
2022-07-27T19:06:16.720Z,2.90
2022-07-27T19:08:46.457Z,3.20
2022-07-27T19:11:15.045Z,4.10
2022-07-27T19:13:44.102Z,4.90
2022-07-27T19:16:14.288Z,5.10
2022-07-27T19:18:42.091Z,5.10
2022-07-27T19:21:12.848Z,5.90
2022-07-27T19:23:40.737Z,5.70
2022-07-27T19:26:10.059Z,6.20
2022-07-27T19:28:38.205Z,7.00
2022-07-27T19:31:06.614Z,7.40
2022-07-27T19:33:52.380Z,7.90
2022-07-27T19:36:20.221Z,8.50
2022-07-27T19:38:48.104Z,9.20
2022-07-27T19:41:16.400Z,9.30
2022-07-27T19:43:44.287Z,9.50
2022-07-27T19:46:12.228Z,10.00
2022-07-27T19:48:40.164Z,9.80
2022-07-27T19:51:10.863Z,10.60
2022-07-27T19:53:40.392Z,10.20
2022-07-27T19:56:08.506Z,11.40
2022-07-27T19:58:36.319Z,11.90
2022-07-27T20:01:04.764Z,11.90
2022-07-27T20:03:52.083Z,12.30
2022-07-27T20:06:24.395Z,12.70
2022-07-27T20:08:55.628Z,13.20
2022-07-27T20:11:23.520Z,13.60
2022-07-27T20:13:51.282Z,13.70
2022-07-27T20:16:19.483Z,13.60
2022-07-27T20:18:47.377Z,13.40
2022-07-27T20:21:22.512Z,14.00
2022-07-27T20:23:53.163Z,14.50
2022-07-27T20:26:21.067Z,15.10
2022-07-27T20:28:49.847Z,15.00
2022-07-27T20:31:17.955Z,15.90
2022-07-27T20:33:45.826Z,16.20
2022-07-27T20:36:14.073Z,16.60
2022-07-27T20:38:41.924Z,16.70
2022-07-27T20:41:11.107Z,16.90
2022-07-27T20:43:40.952Z,17.30
2022-07-27T20:46:09.163Z,17.50
2022-07-27T20:48:38.394Z,17.40
2022-07-27T20:51:06.243Z,18.30
2022-07-27T20:53:34.018Z,18.40
2022-07-27T20:56:01.802Z,18.40
2022-07-27T20:58:31.545Z,19.30
2022-07-27T21:00:59.434Z,19.50
2022-07-27T21:03:27.292Z,19.40
2022-07-27T21:05:56.149Z,20.80
2022-07-27T21:08:23.980Z,21.10
2022-07-27T21:10:51.729Z,21.10
2022-07-27T21:13:19.549Z,21.40
2022-07-27T21:15:48.640Z,22.60
2022-07-27T21:18:16.506Z,22.80
2022-07-27T21:20:44.364Z,24.20
2022-07-27T21:23:29.547Z,23.90
2022-07-27T21:25:57.959Z,23.70
2022-07-27T21:28:26.293Z,24.20
2022-07-27T21:30:55.462Z,23.60
2022-07-27T21:33:23.265Z,24.50
2022-07-27T21:35:51.052Z,25.60
2022-07-27T21:38:18.784Z,25.70
2022-07-27T21:40:47.567Z,25.60
2022-07-27T21:43:15.322Z,26.30
2022-07-27T21:45:49.468Z,26.60
2022-07-27T21:48:22.579Z,26.90
2022-07-27T21:50:50.383Z,27.90
2022-07-27T21:53:18.297Z,27.90
2022-07-27T21:55:46.278Z,28.40
2022-07-27T21:58:15.365Z,28.50
2022-07-27T22:00:43.569Z,30.20
2022-07-27T22:03:11.472Z,31.80
2022-07-27T22:05:40.628Z,32.30
2022-07-27T22:08:08.380Z,34.30
2022-07-27T22:10:36.387Z,35.60
2022-07-27T22:13:04.661Z,37.90
2022-07-27T22:15:32.475Z,38.00
2022-07-27T22:18:00.218Z,38.80
2022-07-27T22:20:28.059Z,38.70
2022-07-27T22:22:57.206Z,38.30
2022-07-27T22:25:24.961Z,38.80
2022-07-27T22:27:52.746Z,38.90
2022-07-27T22:30:20.560Z,39.50
2022-07-27T22:32:48.311Z,38.60
2022-07-27T22:35:16.330Z,37.60
2022-07-27T22:37:44.546Z,40.70
2022-07-27T22:40:13.868Z,40.40
2022-07-27T22:42:43.907Z,43.00
2022-07-27T22:45:12.645Z,43.90
2022-07-27T22:47:42.345Z,45.00
2022-07-27T22:50:13.323Z,46.20
2022-07-27T22:52:45.822Z,47.30
2022-07-27T22:55:15.002Z,49.20
2022-07-27T22:57:45.859Z,51.50
2022-07-27T23:00:14.511Z,53.30
2022-07-27T23:02:42.296Z,54.80
2022-07-27T23:05:10.795Z,54.80
2022-07-27T23:07:38.643Z,51.90
2022-07-27T23:10:30.581Z,51.70
2022-07-27T23:12:59.967Z,52.40
2022-07-27T23:15:28.144Z,53.10
2022-07-27T23:17:55.928Z,53.80
2022-07-27T23:20:23.680Z,54.40
2022-07-27T23:22:51.517Z,57.40
2022-07-27T23:25:19.284Z,57.90
2022-07-27T23:27:49.805Z,58.40
2022-07-27T23:30:24.862Z,62.10
2022-07-27T23:32:54.384Z,62.00
2022-07-27T23:35:22.191Z,64.70
2022-07-27T23:37:49.968Z,67.60
2022-07-27T23:40:18.641Z,70.10
2022-07-27T23:42:46.593Z,71.60
2022-07-27T23:45:14.406Z,74.00
2022-07-27T23:47:45.042Z,77.60
2022-07-27T23:50:15.573Z,79.80
2022-07-27T23:52:43.320Z,82.50
2022-07-27T23:55:11.436Z,84.30
2022-07-27T23:57:39.216Z,85.20
